Time;durP1;ratioP1;P1;durP2;ratioP2;P2;SDS_P1;SDS_P2;PMS_P1;PMS_P2;Temp;Humidity;BMP_temperature;BMP_pressure;BME280_temperature;BME280_humidity;BME280_pressure;Samples;Min_cycle;Max_cycle;Signal;HPM_P1;HPM_P2
2022/05/31 00:00:23;;;;;;;;;2.00;2.00;;;;;17.05;43.01;100669.47;5130786;27;45042;-85
2022/05/31 00:02:50;;;;;;;;;4.25;4.25;;;;;16.75;43.42;100625.91;5130531;27;45255;-83
2022/05/31 00:05:15;;;;;;;;;5.00;4.25;;;;;16.92;42.98;100660.53;5110925;27;45116;-86
2022/05/31 00:07:42;;;;;;;;;5.00;5.00;;;;;16.61;42.64;100608.97;5127947;27;45259;-85
2022/05/31 00:10:09;;;;;;;;;5.00;5.00;;;;;16.63;42.63;100616.03;5123671;27;45447;-85
2022/05/31 00:12:36;;;;;;;;;3.75;3.75;;;;;16.88;43.33;100659.59;5091683;27;46009;-85
2022/05/31 00:15:03;;;;;;;;;5.00;5.00;;;;;16.66;43.69;100620.50;5110935;27;45137;-85
2022/05/31 00:17:28;;;;;;;;;5.00;5.00;;;;;16.59;43.45;100613.34;5109437;27;44981;-84
2022/05/31 00:19:53;;;;;;;;;5.00;5.00;;;;;16.58;43.21;100612.47;5110958;27;45022;-84
2022/05/31 00:22:24;;;;;;;;;5.00;4.50;;;;;16.54;42.98;100596.50;5131136;27;45412;-84
2022/05/31 00:24:50;;;;;;;;;4.75;4.75;;;;;16.81;43.20;100646.28;5133241;27;45255;-86
2022/05/31 00:27:18;;;;;;;;;4.00;4.00;;;;;16.65;43.05;100626.66;5134637;27;45028;-86
2022/05/31 00:29:45;;;;;;;;;3.00;3.00;;;;;16.68;43.04;100640.84;5121510;27;45290;-86
2022/05/31 00:32:13;;;;;;;;;4.00;3.00;;;;;16.56;42.45;100618.66;5113087;27;45492;-85
2022/05/31 00:34:43;;;;;;;;;4.00;4.00;;;;;16.61;43.00;100630.19;5094754;27;45374;-84
2022/05/31 00:37:09;;;;;;;;;3.75;3.00;;;;;16.71;43.11;100648.88;5110390;27;45233;-82
2022/05/31 00:39:35;;;;;;;;;3.00;2.75;;;;;16.64;43.51;100638.16;5122947;27;45263;-85
2022/05/31 00:42:06;;;;;;;;;4.00;3.00;;;;;16.63;43.59;100650.53;5132190;27;45891;-83
2022/05/31 00:44:34;;;;;;;;;4.00;3.00;;;;;16.59;44.40;100637.22;5133961;27;45582;-85
2022/05/31 00:47:14;;;;;;;;;3.75;3.00;;;;;16.58;44.02;100643.41;5114767;27;45248;-85
2022/05/31 00:49:54;;;;;;;;;4.75;3.50;;;;;16.55;44.48;100646.94;5096281;27;45177;-85
2022/05/31 00:52:27;;;;;;;;;6.50;4.75;;;;;16.50;43.78;100644.25;5113681;27;45752;-85
2022/05/31 00:55:03;;;;;;;;;3.75;3.75;;;;;16.27;44.61;100613.97;5113833;27;45354;-86
2022/05/31 00:57:32;;;;;;;;;2.50;2.50;;;;;16.45;44.39;100645.97;5114120;27;45107;-84
2022/05/31 01:00:03;;;;;;;;;3.00;3.00;;;;;16.35;44.36;100641.44;5114210;27;45033;-85
2022/05/31 01:02:29;;;;;;;;;4.00;4.00;;;;;16.32;44.91;100638.78;5113178;27;45767;-85
2022/05/31 01:05:00;;;;;;;;;4.00;4.00;;;;;16.36;44.90;100653.84;5117426;27;45128;-83
2022/05/31 01:07:26;;;;;;;;;3.75;3.00;;;;;16.34;45.52;100655.56;5133866;27;45235;-80
2022/05/31 01:09:53;;;;;;;;;4.00;4.00;;;;;16.25;45.11;100644.88;5109253;27;44894;-81
2022/05/31 01:12:21;;;;;;;;;3.75;3.75;;;;;16.25;45.47;100645.78;5112652;27;46022;-80
2022/05/31 01:14:46;;;;;;;;;3.00;3.00;;;;;16.14;45.15;100633.28;5112765;27;45227;-83
2022/05/31 01:17:20;;;;;;;;;2.00;2.00;;;;;15.88;45.18;100590.59;5112990;27;45415;-82
2022/05/31 01:19:56;;;;;;;;;4.25;3.00;;;;;15.94;45.66;100623.34;5112468;27;45184;-84
2022/05/31 01:22:38;;;;;;;;;3.00;3.00;;;;;16.00;45.75;100639.31;5114892;27;46240;-81
2022/05/31 01:25:24;;;;;;;;;2.00;2.00;;;;;15.93;45.73;100642.78;5112320;27;45548;-85
2022/05/31 01:28:23;;;;;;;;;4.00;4.00;;;;;15.87;45.81;100650.69;5095279;27;45343;-84
2022/05/31 01:30:56;;;;;;;;;2.00;2.00;;;;;15.81;45.88;100650.63;5113804;27;45172;-86
2022/05/31 01:33:29;;;;;;;;;3.50;3.50;;;;;15.58;45.68;100618.50;5094428;27;48092;-84
2022/05/31 01:36:01;;;;;;;;;2.00;2.00;;;;;15.45;46.36;100592.72;5113313;27;45259;-85
2022/05/31 01:38:42;;;;;;;;;2.50;2.00;;;;;15.40;46.31;100607.66;5102368;27;45468;-86
2022/05/31 01:41:31;;;;;;;;;3.00;3.00;;;;;15.44;46.80;100610.38;5132675;27;45177;-83
2022/05/31 01:44:01;;;;;;;;;3.00;3.00;;;;;15.54;46.73;100634.34;5126151;27;45541;-82
2022/05/31 01:46:31;;;;;;;;;3.00;3.00;;;;;15.33;46.73;100609.34;5131895;27;45130;-83
2022/05/31 01:48:58;;;;;;;;;2.00;2.00;;;;;15.55;47.39;100652.88;5133414;27;45150;-84
2022/05/31 01:51:24;;;;;;;;;3.00;2.75;;;;;15.48;47.38;100635.16;5133147;27;45219;-81
2022/05/31 01:53:51;;;;;;;;;3.00;3.00;;;;;15.36;48.10;100619.97;5131274;27;45462;-81
2022/05/31 01:56:17;;;;;;;;;3.00;3.00;;;;;15.36;47.55;100617.31;5112350;27;45638;-80
2022/05/31 01:58:47;;;;;;;;;4.25;3.25;;;;;15.31;47.36;100611.06;5111890;27;45591;-82
2022/05/31 02:01:13;;;;;;;;;3.75;3.75;;;;;15.35;47.76;100618.19;5121732;27;45380;-81
2022/05/31 02:03:41;;;;;;;;;5.00;4.00;;;;;15.27;46.79;100606.63;5133227;27;45053;-84
2022/05/31 02:06:22;;;;;;;;;4.00;3.75;;;;;15.36;47.59;100616.44;5115031;27;45120;-85
2022/05/31 02:08:48;;;;;;;;;3.75;3.75;;;;;15.34;47.58;100613.78;5132998;27;45473;-85
2022/05/31 02:11:13;;;;;;;;;4.00;4.00;;;;;15.26;47.73;100610.13;5116321;27;45020;-82
2022/05/31 02:13:38;;;;;;;;;5.75;4.00;;;;;15.43;48.30;100642.16;5111816;27;45557;-84
2022/05/31 02:16:04;;;;;;;;;4.75;4.00;;;;;15.30;48.01;100629.59;5111955;27;45146;-82
2022/05/31 02:19:15;;;;;;;;;5.25;4.00;;;;;15.35;48.02;100636.72;5112004;27;45330;-83
2022/05/31 02:21:14;;;;;;;;;4.25;4.25;;;;;15.18;47.63;100601.22;5112359;27;44958;-84
2022/05/31 02:23:40;;;;;;;;;4.00;4.00;;;;;15.46;48.42;100640.41;5111076;27;45446;-85
2022/05/31 02:26:05;;;;;;;;;4.00;4.00;;;;;15.11;48.25;100576.41;5112248;27;45415;-82
2022/05/31 02:28:30;;;;;;;;;5.00;5.00;;;;;15.38;48.75;100617.38;5122367;27;44985;-82
2022/05/31 02:30:56;;;;;;;;;3.75;3.00;;;;;15.33;48.42;100612.00;5132459;27;45057;-84
2022/05/31 02:33:21;;;;;;;;;5.00;5.00;;;;;15.38;47.73;100628.84;5113890;27;47208;-82
2022/05/31 02:35:47;;;;;;;;;5.00;5.00;;;;;15.31;48.48;100619.03;5132681;27;47045;-81
2022/05/31 02:38:12;;;;;;;;;4.50;4.50;;;;;15.42;47.87;100635.06;5114295;27;45132;-86
2022/05/31 02:40:37;;;;;;;;;5.00;5.00;;;;;15.47;47.71;100644.84;5112942;27;45461;-81
2022/05/31 02:43:03;;;;;;;;;4.75;4.25;;;;;15.25;47.53;100607.47;5112040;27;45545;-85
2022/05/31 02:45:28;;;;;;;;;5.00;4.75;;;;;15.43;47.42;100640.38;5111125;27;45225;-84
2022/05/31 02:47:53;;;;;;;;;5.67;5.00;;;;;15.29;46.84;100606.66;5111625;27;45092;-86
2022/05/31 02:50:19;;;;;;;;;4.75;4.00;;;;;15.45;47.74;100637.75;5112084;27;45072;-85
2022/05/31 02:52:44;;;;;;;;;5.00;4.50;;;;;15.31;47.87;100602.25;5111776;27;45931;-84
2022/05/31 02:55:10;;;;;;;;;5.00;5.00;;;;;15.25;48.29;100589.81;5112306;27;45057;-82
2022/05/31 02:57:35;;;;;;;;;6.00;5.75;;;;;15.15;48.10;100583.50;5111679;27;45373;-82
2022/05/31 03:00:00;;;;;;;;;4.00;4.00;;;;;15.36;48.83;100621.72;5110617;27;45217;-83
2022/05/31 03:02:26;;;;;;;;;5.25;5.00;;;;;15.20;48.54;100589.75;5110664;27;46304;-83
2022/05/31 03:04:51;;;;;;;;;4.00;4.00;;;;;15.37;48.88;100618.19;5112212;27;46778;-81
2022/05/31 03:07:16;;;;;;;;;4.00;4.00;;;;;15.21;48.78;100599.47;5112032;27;45239;-84
2022/05/31 03:09:42;;;;;;;;;4.00;4.00;;;;;14.99;49.10;100570.06;5117971;27;45049;-81
2022/05/31 03:12:13;;;;;;;;;5.00;5.00;;;;;15.26;49.15;100620.72;5115422;27;45303;-83
2022/05/31 03:14:45;;;;;;;;;4.00;4.00;;;;;15.25;48.61;100626.00;5132033;27;45578;-83
2022/05/31 03:17:16;;;;;;;;;4.75;4.75;;;;;15.23;48.30;100615.41;5131891;27;45233;-86
2022/05/31 03:20:11;;;;;;;;;5.00;5.00;;;;;15.42;48.85;100643.91;5132325;27;45406;-84
2022/05/31 03:22:44;;;;;;;;;5.50;5.50;;;;;15.43;49.28;100652.75;5122662;27;45903;-86
2022/05/31 03:25:19;;;;;;;;;4.00;4.00;;;;;15.07;49.77;100592.22;5131898;27;45537;-84
2022/05/31 03:27:46;;;;;;;;;6.00;5.50;;;;;15.36;48.87;100645.56;5116917;27;45221;-84
2022/05/31 03:30:12;;;;;;;;;6.00;5.25;;;;;15.20;48.60;100618.00;5111064;27;45292;-83
2022/05/31 03:32:38;;;;;;;;;4.75;4.00;;;;;15.04;48.54;100584.25;5116499;27;46555;-83
2022/05/31 03:35:05;;;;;;;;;5.50;5.50;;;;;15.30;48.48;100622.53;5112051;27;45334;-84
2022/05/31 03:37:31;;;;;;;;;6.00;5.50;;;;;15.02;48.57;100583.31;5112095;27;45119;-84
2022/05/31 03:39:56;;;;;;;;;4.00;4.00;;;;;15.18;49.28;100617.09;5111457;27;45306;-84
2022/05/31 03:42:21;;;;;;;;;4.00;4.00;;;;;14.95;49.18;100587.66;5110987;27;46982;-79
2022/05/31 03:44:47;;;;;;;;;6.75;6.00;;;;;15.23;49.21;100650.72;5092121;27;45258;-83
2022/05/31 03:47:12;;;;;;;;;5.00;4.75;;;;;15.05;49.31;100625.72;5120730;27;45308;-84
2022/05/31 03:49:37;;;;;;;;;5.00;4.50;;;;;14.93;49.67;100615.88;5131726;27;45197;-86
2022/05/31 03:52:03;;;;;;;;;5.00;5.00;;;;;14.88;49.18;100614.91;5112622;27;47298;-85
2022/05/31 03:54:29;;;;;;;;;4.25;4.00;;;;;14.88;49.15;100634.31;5130973;27;45162;-85
2022/05/31 03:56:54;;;;;;;;;4.50;4.50;;;;;14.69;49.57;100603.16;5112979;27;45111;-83
2022/05/31 03:59:19;;;;;;;;;5.25;4.25;;;;;14.70;49.79;100600.50;5122890;27;44980;-85
2022/05/31 04:01:45;;;;;;;;;5.00;4.50;;;;;14.76;49.99;100607.66;5117287;27;45078;-85
2022/05/31 04:04:11;;;;;;;;;4.50;4.00;;;;;14.44;50.30;100555.13;5111075;27;45087;-87
2022/05/31 04:06:36;;;;;;;;;6.00;5.00;;;;;14.78;50.39;100616.53;5110972;27;45517;-82
2022/05/31 04:09:03;;;;;;;;;5.25;5.25;;;;;14.55;50.33;100589.69;5131975;27;45504;-84
2022/05/31 04:11:28;;;;;;;;;5.00;5.00;;;;;14.68;50.58;100614.59;5128383;27;46584;-85
2022/05/31 04:13:54;;;;;;;;;6.50;5.00;;;;;14.44;51.11;100578.91;5130809;27;45033;-82
2022/05/31 04:16:20;;;;;;;;;4.25;4.25;;;;;14.58;50.98;100610.00;5131393;27;45079;-82
2022/05/31 04:18:46;;;;;;;;;4.00;4.00;;;;;14.57;51.59;100619.69;5127218;27;45426;-83
2022/05/31 04:21:16;;;;;;;;;3.00;3.00;;;;;14.24;51.66;100569.78;5113218;27;46245;-86
2022/05/31 04:23:58;;;;;;;;;7.50;6.75;;;;;14.29;51.88;100591.00;5119229;27;45118;-84
2022/05/31 04:26:28;;;;;;;;;5.00;5.00;;;;;14.51;51.60;100637.22;5110285;27;45077;-82
2022/05/31 04:28:53;;;;;;;;;6.50;6.50;;;;;14.20;52.44;100582.03;5130457;27;44902;-84
2022/05/31 04:31:19;;;;;;;;;6.25;5.00;;;;;14.15;52.45;100573.13;5119884;27;45285;-86
2022/05/31 04:33:44;;;;;;;;;6.25;5.50;;;;;14.35;52.51;100607.84;5110049;27;45140;-83
2022/05/31 04:36:13;;;;;;;;;4.75;4.75;;;;;14.40;52.78;100614.09;5092182;27;45407;-85
2022/05/31 04:38:39;;;;;;;;;4.00;4.00;;;;;14.06;52.85;100566.81;5111072;27;44938;-85
2022/05/31 04:41:05;;;;;;;;;5.00;5.00;;;;;14.39;52.02;100636.13;5105697;27;45653;-81
2022/05/31 04:43:32;;;;;;;;;6.00;5.00;;;;;14.14;51.71;100599.56;5118575;27;45734;-86
2022/05/31 04:46:08;;;;;;;;;7.00;7.00;;;;;14.28;51.92;100626.22;5117659;27;46660;-86
2022/05/31 04:48:33;;;;;;;;;6.50;5.50;;;;;14.14;52.06;100599.56;5105921;27;45632;-85
2022/05/31 04:50:58;;;;;;;;;5.00;4.50;;;;;14.02;52.34;100583.47;5105940;27;45728;-85
2022/05/31 04:53:23;;;;;;;;;6.00;5.67;;;;;14.42;52.45;100652.03;5103426;27;46400;-84
2022/05/31 04:55:49;;;;;;;;;4.00;4.00;;;;;14.21;51.85;100606.72;5110398;27;45559;-84
2022/05/31 04:58:14;;;;;;;;;5.00;5.00;;;;;14.16;51.80;100593.41;5101017;27;45645;-81
2022/05/31 05:00:39;;;;;;;;;4.50;4.50;;;;;14.19;52.53;100606.69;5112852;27;45828;-85
2022/05/31 05:03:07;;;;;;;;;7.75;5.75;;;;;14.40;52.95;100645.84;5117648;27;45680;-86
2022/05/31 05:05:33;;;;;;;;;4.00;4.00;;;;;14.52;52.03;100665.44;5099822;27;45234;-84
2022/05/31 05:07:59;;;;;;;;;5.50;5.50;;;;;14.54;52.62;100667.25;5120544;27;45792;-85
2022/05/31 05:10:24;;;;;;;;;5.75;5.25;;;;;14.20;53.17;100599.66;5121097;27;45634;-85
2022/05/31 05:12:49;;;;;;;;;6.00;5.75;;;;;14.35;53.05;100630.75;5127446;27;45091;-82
2022/05/31 05:15:15;;;;;;;;;6.25;6.00;;;;;14.53;52.31;100657.56;5122095;27;45488;-84
2022/05/31 05:17:40;;;;;;;;;7.50;7.00;;;;;14.35;52.74;100625.47;5127758;27;45503;-82
2022/05/31 05:20:06;;;;;;;;;5.00;5.00;;;;;14.37;53.04;100624.63;5127094;27;45435;-81
2022/05/31 05:22:32;;;;;;;;;5.00;5.00;;;;;14.54;52.91;100643.47;5129729;27;45699;-81
2022/05/31 05:24:57;;;;;;;;;7.75;6.50;;;;;14.63;52.17;100653.28;5131897;27;45223;-82
2022/05/31 05:27:22;;;;;;;;;5.00;5.00;;;;;14.76;52.98;100663.22;5129597;27;45266;-82
2022/05/31 05:32:32;;;;;;;;;6.00;6.00;;;;;14.67;52.09;100621.63;5123044;27;45938;-79
2022/05/31 05:34:58;;;;;;;;;6.25;6.25;;;;;14.87;52.61;100651.03;5097746;27;45036;-80
2022/05/31 05:37:23;;;;;;;;;5.00;4.25;;;;;15.05;51.73;100681.31;5122940;27;45190;-82
2022/05/31 05:39:49;;;;;;;;;9.25;8.75;;;;;14.93;51.73;100639.69;5122076;27;45793;-80
2022/05/31 05:42:16;;;;;;;;;6.50;6.50;;;;;15.12;51.28;100664.63;5102073;27;45355;-83
2022/05/31 05:44:42;;;;;;;;;6.50;6.50;;;;;15.14;50.94;100665.56;5115538;27;45358;-81
2022/05/31 05:47:10;;;;;;;;;7.25;6.25;;;;;15.11;51.72;100654.91;5108050;27;45382;-80
2022/05/31 05:49:35;;;;;;;;;9.00;8.00;;;;;14.90;50.96;100616.69;5118889;27;45216;-82
2022/05/31 05:52:03;;;;;;;;;7.00;7.00;;;;;15.27;51.10;100671.91;5115488;27;45178;-79
2022/05/31 05:54:28;;;;;;;;;6.00;6.00;;;;;15.07;50.86;100635.44;5114431;27;45108;-80
2022/05/31 05:56:54;;;;;;;;;6.00;6.00;;;;;15.33;51.53;100678.22;5118468;27;44911;-80
2022/05/31 05:59:20;;;;;;;;;9.50;8.00;;;;;15.32;51.19;100659.63;5112852;27;45391;-80
2022/05/31 06:01:54;;;;;;;;;6.75;6.75;;;;;15.26;51.06;100639.25;5111802;27;45297;-80
2022/05/31 06:04:22;;;;;;;;;7.75;7.50;;;;;15.68;51.63;100694.59;5112276;27;45207;-81
2022/05/31 06:06:58;;;;;;;;;11.75;11.25;;;;;15.47;51.48;100631.63;5127627;27;45213;-79
2022/05/31 06:09:24;;;;;;;;;9.50;8.50;;;;;15.83;51.02;100672.72;5117065;27;46163;-79
2022/05/31 06:12:04;;;;;;;;;8.50;7.75;;;;;15.98;50.71;100666.69;5131603;27;45201;-79
2022/05/31 06:14:36;;;;;;;;;7.25;7.00;;;;;16.19;50.46;100689.91;5123959;27;45200;-82
2022/05/31 06:17:09;;;;;;;;;8.75;8.25;;;;;16.12;50.37;100645.66;5121263;27;45158;-80
2022/05/31 06:19:38;;;;;;;;;9.25;8.00;;;;;16.23;50.03;100652.81;5130133;27;45252;-80
2022/05/31 06:22:05;;;;;;;;;8.75;8.00;;;;;16.57;48.98;100700.91;5112376;27;45384;-81
2022/05/31 06:24:33;;;;;;;;;9.50;9.50;;;;;16.25;49.42;100629.88;5122183;27;45135;-79
2022/05/31 06:26:59;;;;;;;;;7.25;7.00;;;;;16.38;49.75;100651.19;5119934;27;45174;-79
2022/05/31 06:29:27;;;;;;;;;8.00;8.00;;;;;16.40;49.13;100639.75;5110988;27;45571;-79
2022/05/31 06:31:53;;;;;;;;;8.00;8.00;;;;;16.76;48.67;100699.34;5110204;27;46061;-80
2022/05/31 06:34:18;;;;;;;;;9.75;8.00;;;;;16.66;49.09;100668.25;5110430;27;45202;-81
2022/05/31 06:36:44;;;;;;;;;8.75;8.00;;;;;16.92;48.88;100708.31;5110406;27;45179;-80
2022/05/31 06:39:09;;;;;;;;;8.00;7.00;;;;;16.77;48.92;100662.19;5111981;27;46293;-79
2022/05/31 06:41:35;;;;;;;;;7.25;7.00;;;;;17.09;49.24;100700.47;5110217;27;45194;-80
2022/05/31 06:44:02;;;;;;;;;7.00;7.00;;;;;17.08;48.35;100688.97;5123498;27;45369;-80
2022/05/31 06:46:29;;;;;;;;;9.25;7.50;;;;;17.19;48.42;100699.66;5118103;27;45338;-79
2022/05/31 06:48:54;;;;;;;;;6.50;6.50;;;;;16.97;49.01;100662.34;5113474;27;45477;-80
2022/05/31 06:56:57;;;;;;;;;7.50;7.50;;;;;16.98;47.52;100650.84;5109171;27;45021;-80
2022/05/31 06:59:22;;;;;;;;;6.25;6.00;;;;;17.14;48.03;100666.84;5107327;27;45323;-79
2022/05/31 07:01:48;;;;;;;;;9.00;8.75;;;;;17.20;46.88;100666.94;5107755;27;45664;-80
2022/05/31 07:04:14;;;;;;;;;6.75;6.00;;;;;17.20;47.41;100658.97;5110145;27;45149;-80
2022/05/31 07:06:40;;;;;;;;;6.00;6.00;;;;;17.56;46.31;100702.56;5110192;27;45151;-79
2022/05/31 07:09:06;;;;;;;;;6.00;5.25;;;;;17.56;46.60;100691.91;5091616;27;47476;-79
2022/05/31 07:11:31;;;;;;;;;7.00;6.25;;;;;17.54;45.93;100675.97;5129126;27;45049;-79
2022/05/31 07:13:56;;;;;;;;;6.25;6.00;;;;;17.60;45.90;100678.66;5129283;27;45060;-83
2022/05/31 07:16:22;;;;;;;;;6.00;6.00;;;;;17.72;45.59;100697.31;5126854;27;45011;-80
2022/05/31 07:18:48;;;;;;;;;6.75;6.00;;;;;17.65;45.86;100684.88;5127421;27;45193;-82
2022/05/31 07:21:13;;;;;;;;;6.00;6.00;;;;;17.51;44.99;100652.91;5130266;27;45144;-80
2022/05/31 07:23:40;;;;;;;;;6.00;6.00;;;;;17.54;45.61;100657.38;5124527;27;45498;-80
2022/05/31 07:26:07;;;;;;;;;6.25;5.50;;;;;17.83;45.87;100713.34;5125572;27;45075;-79
2022/05/31 07:28:32;;;;;;;;;6.00;6.00;;;;;17.57;44.71;100656.47;5123023;27;45998;-80
2022/05/31 07:30:58;;;;;;;;;6.00;4.50;;;;;17.59;44.28;100649.44;5107269;27;45231;-80
2022/05/31 07:33:23;;;;;;;;;7.75;7.00;;;;;17.74;44.06;100665.47;5123237;27;45400;-82
2022/05/31 07:35:49;;;;;;;;;7.00;6.00;;;;;17.84;43.81;100667.28;5115154;27;45435;-82
2022/05/31 07:38:23;;;;;;;;;6.00;6.00;;;;;17.87;44.14;100659.28;5123410;27;45410;-84
2022/05/31 07:40:48;;;;;;;;;6.50;5.50;;;;;18.10;44.06;100680.66;5125957;27;45411;-81
2022/05/31 07:43:14;;;;;;;;;5.00;5.00;;;;;18.13;43.84;100678.00;5102686;27;45404;-83
2022/05/31 07:45:40;;;;;;;;;5.75;5.75;;;;;18.43;44.32;100718.88;5104158;27;45332;-83
2022/05/31 07:48:06;;;;;;;;;4.00;4.00;;;;;18.24;43.44;100670.06;5126987;27;45408;-80
2022/05/31 07:50:32;;;;;;;;;6.75;5.75;;;;;18.49;44.24;100705.56;5130342;27;45593;-80
2022/05/31 07:52:59;;;;;;;;;7.25;7.25;;;;;18.55;44.37;100713.56;5130512;27;45284;-82
2022/05/31 07:55:27;;;;;;;;;6.00;5.25;;;;;18.57;44.38;100709.16;5130167;27;45312;-80
2022/05/31 08:00:36;;;;;;;;;4.50;4.25;;;;;18.38;43.82;100670.09;5116878;27;45278;-80
2022/05/31 08:03:02;;;;;;;;;4.50;4.25;;;;;18.30;43.29;100654.09;5117428;27;45138;-82
2022/05/31 08:05:27;;;;;;;;;4.75;4.75;;;;;18.53;43.35;100686.94;5109342;27;45135;-85
2022/05/31 08:07:52;;;;;;;;;4.75;4.50;;;;;18.53;42.45;100681.63;5099573;27;45759;-80
2022/05/31 08:10:20;;;;;;;;;5.00;4.75;;;;;18.72;42.70;100721.63;5107894;27;45582;-82
2022/05/31 08:12:45;;;;;;;;;4.75;3.75;;;;;18.58;42.70;100691.41;5127850;27;45304;-84
2022/05/31 08:15:11;;;;;;;;;5.00;4.50;;;;;18.58;44.15;100696.72;5128298;27;45087;-84
2022/05/31 08:17:37;;;;;;;;;1.50;1.25;;;;;18.26;43.63;100644.31;5124025;27;45458;-85
2022/05/31 08:20:04;;;;;;;;;5.00;4.50;;;;;18.54;43.04;100683.41;5111404;27;45998;-83
2022/05/31 08:22:30;;;;;;;;;5.75;4.50;;;;;18.44;43.37;100665.66;5110923;27;45404;-85
2022/05/31 08:24:55;;;;;;;;;5.75;4.25;;;;;18.61;42.51;100689.59;5110872;27;45557;-83
2022/05/31 08:27:21;;;;;;;;;3.50;3.50;;;;;18.64;42.39;100683.41;5092181;27;47833;-83
2022/05/31 08:29:46;;;;;;;;;6.00;5.25;;;;;18.82;42.10;100712.75;5109287;27;45360;-81
2022/05/31 08:32:11;;;;;;;;;3.25;3.25;;;;;18.74;41.93;100683.44;5109329;27;45507;-81
2022/05/31 08:34:37;;;;;;;;;4.50;4.50;;;;;18.98;41.71;100714.53;5108755;27;45332;-81
2022/05/31 08:37:02;;;;;;;;;2.50;2.50;;;;;18.95;41.78;100708.28;5109663;27;45419;-84
2022/05/31 08:39:28;;;;;;;;;4.50;3.50;;;;;18.99;41.59;100712.72;5090523;27;46022;-83
2022/05/31 08:42:18;;;;;;;;;3.25;3.25;;;;;18.76;42.05;100667.47;5109201;27;45586;-86
2022/05/31 08:45:00;;;;;;;;;4.75;4.50;;;;;18.97;42.01;100702.09;5111646;27;45520;-86
2022/05/31 08:47:51;;;;;;;;;4.50;4.25;;;;;19.08;42.66;100726.06;5113864;27;46124;-82
2022/05/31 08:53:34;;;;;;;;;5.00;4.00;;;;;18.86;42.40;100705.63;5114661;27;45649;-80
2022/05/31 08:58:49;;;;;;;;;3.25;3.25;;;;;18.66;43.28;100724.22;5113359;27;45754;-81
2022/05/31 09:01:19;;;;;;;;;4.25;4.25;;;;;18.49;43.04;100714.44;5113479;27;45417;-83
2022/05/31 09:03:50;;;;;;;;;3.50;3.50;;;;;18.42;43.56;100703.78;5113254;27;45480;-83
2022/05/31 09:06:22;;;;;;;;;5.25;5.00;;;;;18.29;43.43;100681.59;5114013;27;45398;-80
2022/05/31 09:09:05;;;;;;;;;4.75;4.50;;;;;18.54;43.20;100731.31;5113246;27;45396;-80
2022/05/31 09:11:59;;;;;;;;;4.50;4.50;;;;;18.30;43.51;100697.56;5093637;27;45772;-81
2022/05/31 09:14:40;;;;;;;;;3.50;3.25;;;;;18.47;42.73;100729.53;5092862;27;45445;-82
2022/05/31 09:17:09;;;;;;;;;4.00;4.00;;;;;18.46;43.57;100726.84;5092710;27;45330;-79
2022/05/31 09:19:49;;;;;;;;;3.75;3.50;;;;;18.17;43.40;100669.13;5092702;27;45588;-79
2022/05/31 09:22:15;;;;;;;;;5.00;4.50;;;;;18.21;43.11;100673.56;5093363;27;45315;-82
2022/05/31 09:24:45;;;;;;;;;3.50;3.50;;;;;18.62;42.54;100731.34;5092263;27;45771;-83
2022/05/31 09:27:14;;;;;;;;;4.00;3.25;;;;;18.74;42.40;100731.38;5093121;27;45402;-80
2022/05/31 09:29:48;;;;;;;;;2.25;2.25;;;;;18.91;42.06;100727.81;5092241;27;45682;-81
2022/05/31 09:32:44;;;;;;;;;3.00;3.00;;;;;19.06;41.41;100731.41;5092074;27;45890;-80
2022/05/31 09:35:10;;;;;;;;;2.50;2.50;;;;;19.17;41.83;100723.38;5074535;27;45480;-78
2022/05/31 09:37:57;;;;;;;;;3.00;3.00;;;;;19.22;40.32;100721.59;5074033;27;46351;-80
2022/05/31 09:40:49;;;;;;;;;3.25;3.25;;;;;19.30;40.24;100729.56;5091877;27;45464;-79
2022/05/31 09:43:24;;;;;;;;;3.00;3.00;;;;;19.36;40.32;100726.00;5074171;27;45859;-82
2022/05/31 09:46:08;;;;;;;;;2.75;2.75;;;;;19.40;40.23;100728.66;5092263;27;45450;-80
2022/05/31 09:48:38;;;;;;;;;4.25;4.00;;;;;19.38;39.48;100714.47;5092006;27;45902;-80
2022/05/31 09:51:27;;;;;;;;;4.00;3.75;;;;;19.43;40.16;100719.78;5092722;27;45477;-84
2022/05/31 09:59:29;;;;;;;;;3.75;3.75;;;;;19.51;40.62;100686.91;5092027;27;45321;-82
2022/05/31 10:01:55;;;;;;;;;3.00;3.00;;;;;19.68;39.82;100688.66;5073023;27;47049;-80
2022/05/31 10:04:28;;;;;;;;;4.00;4.00;;;;;19.77;39.00;100702.84;5073835;27;45934;-80
2022/05/31 10:07:01;;;;;;;;;3.00;3.00;;;;;19.90;39.41;100711.69;5073582;27;45402;-82
2022/05/31 10:09:42;;;;;;;;;3.25;2.50;;;;;19.88;39.10;100685.91;5093636;27;45557;-79
2022/05/31 10:12:13;;;;;;;;;2.25;2.25;;;;;20.09;38.95;100710.69;5112928;27;45453;-80
2022/05/31 10:14:48;;;;;;;;;4.75;3.00;;;;;20.26;38.24;100699.06;5112439;27;45816;-80
2022/05/31 10:17:41;;;;;;;;;2.75;2.00;;;;;20.54;37.46;100705.13;5094224;27;45390;-82
2022/05/31 10:20:26;;;;;;;;;2.25;2.00;;;;;20.92;36.83;100704.84;5113143;27;45441;-80
2022/05/31 10:22:53;;;;;;;;;2.00;2.00;;;;;21.29;35.88;100704.50;5112359;27;45581;-80
2022/05/31 10:25:44;;;;;;;;;2.75;2.75;;;;;21.52;35.89;100690.91;5093825;27;45928;-81
2022/05/31 10:28:23;;;;;;;;;2.00;2.00;;;;;21.58;34.41;100669.47;5112857;27;45506;-81
2022/05/31 10:31:03;;;;;;;;;1.75;1.75;;;;;21.77;34.03;100692.44;5111663;27;45533;-82
2022/05/31 10:33:30;;;;;;;;;2.25;2.00;;;;;21.70;34.33;100693.38;5092999;27;48058;-78
2022/05/31 10:36:17;;;;;;;;;2.25;2.00;;;;;21.38;34.29;100669.69;5109732;27;45822;-81
2022/05/31 10:38:46;;;;;;;;;2.50;2.50;;;;;21.12;34.04;100651.19;5095088;27;44878;-81
2022/05/31 10:41:22;;;;;;;;;3.75;3.00;;;;;21.32;33.02;100704.50;5110982;27;45468;-80
2022/05/31 10:44:05;;;;;;;;;2.25;2.00;;;;;21.12;33.42;100693.97;5113243;27;46330;-79
2022/05/31 10:46:34;;;;;;;;;1.50;1.50;;;;;20.78;33.31;100661.31;5111886;27;45767;-83
2022/05/31 10:49:10;;;;;;;;;1.50;1.00;;;;;20.93;33.63;100706.59;5117765;27;45365;-81
2022/05/31 10:52:07;;;;;;;;;2.00;2.00;;;;;20.87;34.18;100702.19;5111468;27;45107;-81
2022/05/31 10:54:52;;;;;;;;;2.50;2.50;;;;;20.82;34.27;100712.03;5100562;27;46057;-83
2022/05/31 10:57:42;;;;;;;;;2.00;2.00;;;;;20.77;34.62;100712.97;5119110;27;45582;-80
2022/05/31 11:00:18;;;;;;;;;3.00;3.00;;;;;20.51;34.68;100689.13;5119503;27;45504;-81
2022/05/31 11:03:08;;;;;;;;;3.00;2.50;;;;;20.64;34.46;100713.94;5113171;27;45362;-82
2022/05/31 11:05:45;;;;;;;;;4.00;3.50;;;;;20.67;35.02;100714.81;5110975;27;46468;-85
2022/05/31 11:11:32;;;;;;;;;3.00;3.00;;;;;20.90;35.08;100698.63;5115129;27;45582;-80
2022/05/31 11:14:19;;;;;;;;;2.75;2.25;;;;;21.06;35.42;100708.28;5124993;27;45786;-83
2022/05/31 11:17:21;;;;;;;;;2.00;2.00;;;;;21.35;35.42;100720.53;5111176;27;45451;-82
2022/05/31 11:20:25;;;;;;;;;2.00;2.00;;;;;21.65;34.42;100719.31;5115526;27;46023;-83
2022/05/31 11:23:17;;;;;;;;;3.00;2.00;;;;;21.75;34.76;100670.13;5026041;27;45540;-81
2022/05/31 11:26:01;;;;;;;;;2.50;2.50;;;;;22.18;34.41;100706.19;5126653;27;45091;-85
2022/05/31 11:29:02;;;;;;;;;2.00;2.00;;;;;22.11;34.04;100706.25;5105986;27;45705;-80
2022/05/31 11:31:52;;;;;;;;;2.00;2.00;;;;;21.89;34.46;100689.56;5086472;27;45948;-81
2022/05/31 11:34:17;;;;;;;;;3.00;3.00;;;;;21.98;34.60;100703.75;5106524;27;45872;-85
2022/05/31 11:37:04;;;;;;;;;2.00;2.00;;;;;22.00;34.48;100701.94;5111224;27;45704;-82
2022/05/31 11:39:42;;;;;;;;;2.75;2.75;;;;;21.70;34.67;100650.59;5125089;27;45658;-81
2022/05/31 11:42:19;;;;;;;;;2.00;2.00;;;;;21.84;34.44;100663.78;5130383;27;45288;-80
2022/05/31 11:45:18;;;;;;;;;3.00;3.00;;;;;22.09;34.10;100708.06;5123081;27;45381;-82
2022/05/31 11:48:07;;;;;;;;;3.25;2.75;;;;;22.04;34.92;100711.69;5097558;27;45256;-80
2022/05/31 11:51:01;;;;;;;;;2.00;2.00;;;;;21.71;34.83;100678.22;5096952;27;47118;-80
2022/05/31 11:53:45;;;;;;;;;3.00;3.00;;;;;21.54;35.13;100681.97;5090565;27;45183;-82
2022/05/31 11:56:20;;;;;;;;;2.50;2.50;;;;;21.59;34.75;100712.25;5113772;27;45191;-81
2022/05/31 11:58:53;;;;;;;;;1.75;1.75;;;;;21.30;35.61;100687.56;5102922;27;45505;-79
2022/05/31 12:01:34;;;;;;;;;2.00;2.00;;;;;21.38;35.18;100693.75;5090157;27;47711;-81
2022/05/31 12:04:06;;;;;;;;;2.25;2.25;;;;;21.58;35.33;100718.50;5091343;27;45309;-82
2022/05/31 12:07:11;;;;;;;;;3.00;2.50;;;;;21.63;35.17;100707.75;5124183;27;45119;-80